sensor_id;sensor_type;location;lat;lon;timestamp;P1;durP1;ratioP1;P2;durP2;ratioP2
21260;SDS011;10788;47.930;9.766;2022-08-01T00:01:43;0.10;;;0.10;;
21260;SDS011;10788;47.930;9.766;2022-08-01T00:04:09;0.10;;;0.10;;
21260;SDS011;10788;47.930;9.766;2022-08-01T00:06:35;0.10;;;0.10;;
21260;SDS011;10788;47.930;9.766;2022-08-01T00:09:00;0.10;;;0.10;;
21260;SDS011;10788;47.930;9.766;2022-08-01T00:11:26;0.10;;;0.10;;
21260;SDS011;10788;47.930;9.766;2022-08-01T00:13:52;0.10;;;0.10;;
21260;SDS011;10788;47.930;9.766;2022-08-01T00:16:18;0.10;;;0.10;;
21260;SDS011;10788;47.930;9.766;2022-08-01T00:18:43;0.00;;;0.00;;
21260;SDS011;10788;47.930;9.766;2022-08-01T00:21:09;0.10;;;0.10;;
21260;SDS011;10788;47.930;9.766;2022-08-01T00:23:35;0.10;;;0.10;;
21260;SDS011;10788;47.930;9.766;2022-08-01T00:26:01;0.00;;;0.00;;
21260;SDS011;10788;47.930;9.766;2022-08-01T00:28:27;0.10;;;0.10;;
21260;SDS011;10788;47.930;9.766;2022-08-01T00:30:52;0.00;;;0.00;;
21260;SDS011;10788;47.930;9.766;2022-08-01T00:33:18;0.10;;;0.10;;
21260;SDS011;10788;47.930;9.766;2022-08-01T00:35:43;0.10;;;0.10;;
21260;SDS011;10788;47.930;9.766;2022-08-01T00:38:09;0.10;;;0.10;;
21260;SDS011;10788;47.930;9.766;2022-08-01T00:40:36;0.00;;;0.00;;
21260;SDS011;10788;47.930;9.766;2022-08-01T00:43:02;0.00;;;0.00;;
21260;SDS011;10788;47.930;9.766;2022-08-01T00:45:28;0.10;;;0.10;;
21260;SDS011;10788;47.930;9.766;2022-08-01T00:47:53;0.00;;;0.00;;
21260;SDS011;10788;47.930;9.766;2022-08-01T00:50:19;0.00;;;0.00;;
21260;SDS011;10788;47.930;9.766;2022-08-01T00:52:44;0.03;;;0.03;;
21260;SDS011;10788;47.930;9.766;2022-08-01T00:55:10;0.10;;;0.10;;
21260;SDS011;10788;47.930;9.766;2022-08-01T00:57:38;0.07;;;0.07;;
21260;SDS011;10788;47.930;9.766;2022-08-01T01:00:04;0.10;;;0.10;;
21260;SDS011;10788;47.930;9.766;2022-08-01T01:02:31;0.10;;;0.10;;
21260;SDS011;10788;47.930;9.766;2022-08-01T01:04:57;0.10;;;0.10;;
21260;SDS011;10788;47.930;9.766;2022-08-01T01:10:02;0.03;;;0.03;;
21260;SDS011;10788;47.930;9.766;2022-08-01T01:12:37;0.03;;;0.03;;
21260;SDS011;10788;47.930;9.766;2022-08-01T01:17:57;0.00;;;0.00;;
21260;SDS011;10788;47.930;9.766;2022-08-01T01:20:43;0.00;;;0.00;;
21260;SDS011;10788;47.930;9.766;2022-08-01T01:28:55;0.00;;;0.00;;
21260;SDS011;10788;47.930;9.766;2022-08-01T01:31:28;0.10;;;0.10;;
21260;SDS011;10788;47.930;9.766;2022-08-01T01:34:00;0.00;;;0.00;;
21260;SDS011;10788;47.930;9.766;2022-08-01T01:36:29;0.10;;;0.10;;
21260;SDS011;10788;47.930;9.766;2022-08-01T01:38:57;0.10;;;0.10;;
21260;SDS011;10788;47.930;9.766;2022-08-01T01:41:25;0.00;;;0.00;;
21260;SDS011;10788;47.930;9.766;2022-08-01T01:43:52;0.10;;;0.10;;
21260;SDS011;10788;47.930;9.766;2022-08-01T01:46:19;0.10;;;0.10;;
21260;SDS011;10788;47.930;9.766;2022-08-01T01:48:49;0.00;;;0.00;;
21260;SDS011;10788;47.930;9.766;2022-08-01T01:51:16;0.03;;;0.03;;
21260;SDS011;10788;47.930;9.766;2022-08-01T01:53:45;0.10;;;0.10;;
21260;SDS011;10788;47.930;9.766;2022-08-01T01:56:14;0.00;;;0.00;;
21260;SDS011;10788;47.930;9.766;2022-08-01T01:58:41;0.00;;;0.00;;
21260;SDS011;10788;47.930;9.766;2022-08-01T02:01:08;0.07;;;0.07;;
21260;SDS011;10788;47.930;9.766;2022-08-01T02:03:36;0.10;;;0.10;;
21260;SDS011;10788;47.930;9.766;2022-08-01T02:06:03;0.00;;;0.00;;
21260;SDS011;10788;47.930;9.766;2022-08-01T02:08:29;0.10;;;0.10;;
21260;SDS011;10788;47.930;9.766;2022-08-01T02:10:57;0.10;;;0.10;;
21260;SDS011;10788;47.930;9.766;2022-08-01T02:13:43;0.10;;;0.10;;
21260;SDS011;10788;47.930;9.766;2022-08-01T02:16:18;0.00;;;0.00;;
21260;SDS011;10788;47.930;9.766;2022-08-01T02:18:45;0.10;;;0.10;;
21260;SDS011;10788;47.930;9.766;2022-08-01T02:21:12;0.10;;;0.10;;
21260;SDS011;10788;47.930;9.766;2022-08-01T02:23:41;0.10;;;0.10;;
21260;SDS011;10788;47.930;9.766;2022-08-01T02:26:09;0.00;;;0.00;;
21260;SDS011;10788;47.930;9.766;2022-08-01T02:28:50;0.10;;;0.10;;
21260;SDS011;10788;47.930;9.766;2022-08-01T02:31:27;0.10;;;0.10;;
21260;SDS011;10788;47.930;9.766;2022-08-01T02:33:58;0.10;;;0.10;;
21260;SDS011;10788;47.930;9.766;2022-08-01T02:36:27;0.00;;;0.00;;
21260;SDS011;10788;47.930;9.766;2022-08-01T02:38:55;0.07;;;0.07;;
21260;SDS011;10788;47.930;9.766;2022-08-01T02:41:24;0.00;;;0.00;;
21260;SDS011;10788;47.930;9.766;2022-08-01T02:43:52;0.00;;;0.00;;
21260;SDS011;10788;47.930;9.766;2022-08-01T02:46:24;0.10;;;0.10;;
21260;SDS011;10788;47.930;9.766;2022-08-01T02:48:55;0.00;;;0.00;;
21260;SDS011;10788;47.930;9.766;2022-08-01T02:51:24;0.00;;;0.00;;
21260;SDS011;10788;47.930;9.766;2022-08-01T02:53:51;0.00;;;0.00;;
21260;SDS011;10788;47.930;9.766;2022-08-01T02:56:19;0.10;;;0.10;;
21260;SDS011;10788;47.930;9.766;2022-08-01T02:58:47;0.00;;;0.00;;
21260;SDS011;10788;47.930;9.766;2022-08-01T03:01:16;0.10;;;0.10;;
21260;SDS011;10788;47.930;9.766;2022-08-01T03:03:42;0.00;;;0.00;;
21260;SDS011;10788;47.930;9.766;2022-08-01T03:06:08;0.10;;;0.10;;
21260;SDS011;10788;47.930;9.766;2022-08-01T03:08:35;0.00;;;0.00;;
21260;SDS011;10788;47.930;9.766;2022-08-01T03:11:02;0.00;;;0.00;;
21260;SDS011;10788;47.930;9.766;2022-08-01T03:13:29;0.03;;;0.03;;
21260;SDS011;10788;47.930;9.766;2022-08-01T03:15:57;0.10;;;0.10;;
21260;SDS011;10788;47.930;9.766;2022-08-01T03:18:25;0.00;;;0.00;;
21260;SDS011;10788;47.930;9.766;2022-08-01T03:20:52;0.00;;;0.00;;
21260;SDS011;10788;47.930;9.766;2022-08-01T03:23:20;0.00;;;0.00;;
21260;SDS011;10788;47.930;9.766;2022-08-01T03:25:47;0.10;;;0.10;;
21260;SDS011;10788;47.930;9.766;2022-08-01T03:28:15;0.10;;;0.10;;
21260;SDS011;10788;47.930;9.766;2022-08-01T03:30:43;0.10;;;0.10;;
21260;SDS011;10788;47.930;9.766;2022-08-01T03:33:10;0.10;;;0.10;;
21260;SDS011;10788;47.930;9.766;2022-08-01T03:35:37;0.00;;;0.00;;
21260;SDS011;10788;47.930;9.766;2022-08-01T03:38:08;0.00;;;0.00;;
21260;SDS011;10788;47.930;9.766;2022-08-01T03:40:40;0.00;;;0.00;;
21260;SDS011;10788;47.930;9.766;2022-08-01T03:43:11;0.00;;;0.00;;
21260;SDS011;10788;47.930;9.766;2022-08-01T03:46:03;0.10;;;0.10;;
21260;SDS011;10788;47.930;9.766;2022-08-01T03:48:37;0.07;;;0.07;;
21260;SDS011;10788;47.930;9.766;2022-08-01T03:51:06;0.00;;;0.00;;
21260;SDS011;10788;47.930;9.766;2022-08-01T03:53:33;0.10;;;0.10;;
21260;SDS011;10788;47.930;9.766;2022-08-01T03:56:02;0.00;;;0.00;;
21260;SDS011;10788;47.930;9.766;2022-08-01T03:58:29;0.10;;;0.10;;
21260;SDS011;10788;47.930;9.766;2022-08-01T04:00:55;0.00;;;0.00;;
21260;SDS011;10788;47.930;9.766;2022-08-01T04:03:22;0.10;;;0.10;;
21260;SDS011;10788;47.930;9.766;2022-08-01T04:05:49;0.10;;;0.10;;
21260;SDS011;10788;47.930;9.766;2022-08-01T04:08:15;0.00;;;0.00;;
21260;SDS011;10788;47.930;9.766;2022-08-01T04:10:41;0.00;;;0.00;;
21260;SDS011;10788;47.930;9.766;2022-08-01T04:13:06;0.10;;;0.10;;
21260;SDS011;10788;47.930;9.766;2022-08-01T04:15:32;0.00;;;0.00;;
21260;SDS011;10788;47.930;9.766;2022-08-01T04:17:57;0.00;;;0.00;;
21260;SDS011;10788;47.930;9.766;2022-08-01T04:20:23;0.00;;;0.00;;
21260;SDS011;10788;47.930;9.766;2022-08-01T04:22:49;0.00;;;0.00;;
21260;SDS011;10788;47.930;9.766;2022-08-01T04:25:25;0.00;;;0.00;;
21260;SDS011;10788;47.930;9.766;2022-08-01T04:27:53;0.00;;;0.00;;
21260;SDS011;10788;47.930;9.766;2022-08-01T04:30:26;0.10;;;0.10;;
21260;SDS011;10788;47.930;9.766;2022-08-01T04:32:55;0.10;;;0.10;;
21260;SDS011;10788;47.930;9.766;2022-08-01T04:35:21;0.00;;;0.00;;
21260;SDS011;10788;47.930;9.766;2022-08-01T04:37:50;0.00;;;0.00;;
21260;SDS011;10788;47.930;9.766;2022-08-01T04:40:16;0.10;;;0.10;;
21260;SDS011;10788;47.930;9.766;2022-08-01T04:42:46;0.00;;;0.00;;
21260;SDS011;10788;47.930;9.766;2022-08-01T04:45:13;0.00;;;0.00;;
21260;SDS011;10788;47.930;9.766;2022-08-01T04:47:40;0.00;;;0.00;;
21260;SDS011;10788;47.930;9.766;2022-08-01T04:50:08;0.00;;;0.00;;
21260;SDS011;10788;47.930;9.766;2022-08-01T04:52:35;0.00;;;0.00;;
21260;SDS011;10788;47.930;9.766;2022-08-01T04:55:02;0.03;;;0.03;;
21260;SDS011;10788;47.930;9.766;2022-08-01T04:57:31;0.10;;;0.10;;
21260;SDS011;10788;47.930;9.766;2022-08-01T05:00:00;0.00;;;0.00;;
21260;SDS011;10788;47.930;9.766;2022-08-01T05:02:27;0.00;;;0.00;;
21260;SDS011;10788;47.930;9.766;2022-08-01T05:04:54;0.03;;;0.03;;
21260;SDS011;10788;47.930;9.766;2022-08-01T05:07:20;0.00;;;0.00;;
21260;SDS011;10788;47.930;9.766;2022-08-01T05:09:46;0.00;;;0.00;;
21260;SDS011;10788;47.930;9.766;2022-08-01T05:12:12;0.10;;;0.10;;
21260;SDS011;10788;47.930;9.766;2022-08-01T05:14:38;0.03;;;0.03;;
21260;SDS011;10788;47.930;9.766;2022-08-01T05:17:05;0.07;;;0.07;;
21260;SDS011;10788;47.930;9.766;2022-08-01T05:19:35;0.00;;;0.00;;
21260;SDS011;10788;47.930;9.766;2022-08-01T05:22:02;0.00;;;0.00;;
21260;SDS011;10788;47.930;9.766;2022-08-01T05:24:30;0.10;;;0.10;;
21260;SDS011;10788;47.930;9.766;2022-08-01T05:26:57;0.00;;;0.00;;
21260;SDS011;10788;47.930;9.766;2022-08-01T05:29:23;0.10;;;0.10;;
21260;SDS011;10788;47.930;9.766;2022-08-01T05:31:49;0.00;;;0.00;;
21260;SDS011;10788;47.930;9.766;2022-08-01T05:34:15;0.10;;;0.10;;
21260;SDS011;10788;47.930;9.766;2022-08-01T05:36:42;0.00;;;0.00;;
21260;SDS011;10788;47.930;9.766;2022-08-01T05:39:07;0.00;;;0.00;;
21260;SDS011;10788;47.930;9.766;2022-08-01T05:41:33;0.10;;;0.10;;
21260;SDS011;10788;47.930;9.766;2022-08-01T05:44:01;0.00;;;0.00;;
21260;SDS011;10788;47.930;9.766;2022-08-01T05:46:27;0.10;;;0.10;;
21260;SDS011;10788;47.930;9.766;2022-08-01T05:48:55;0.10;;;0.10;;
21260;SDS011;10788;47.930;9.766;2022-08-01T05:51:21;0.10;;;0.10;;
21260;SDS011;10788;47.930;9.766;2022-08-01T05:53:47;0.00;;;0.00;;
21260;SDS011;10788;47.930;9.766;2022-08-01T05:56:13;0.00;;;0.00;;
21260;SDS011;10788;47.930;9.766;2022-08-01T05:58:38;0.00;;;0.00;;
21260;SDS011;10788;47.930;9.766;2022-08-01T06:01:04;0.00;;;0.00;;
21260;SDS011;10788;47.930;9.766;2022-08-01T06:03:29;0.10;;;0.10;;
21260;SDS011;10788;47.930;9.766;2022-08-01T06:05:57;0.10;;;0.10;;
21260;SDS011;10788;47.930;9.766;2022-08-01T06:08:22;0.00;;;0.00;;
21260;SDS011;10788;47.930;9.766;2022-08-01T06:10:48;0.10;;;0.10;;
21260;SDS011;10788;47.930;9.766;2022-08-01T06:13:14;0.10;;;0.10;;
21260;SDS011;10788;47.930;9.766;2022-08-01T06:15:40;0.10;;;0.10;;
21260;SDS011;10788;47.930;9.766;2022-08-01T06:18:05;0.10;;;0.10;;
21260;SDS011;10788;47.930;9.766;2022-08-01T06:20:31;0.10;;;0.10;;
21260;SDS011;10788;47.930;9.766;2022-08-01T06:22:57;0.10;;;0.10;;
21260;SDS011;10788;47.930;9.766;2022-08-01T06:25:22;0.10;;;0.10;;
21260;SDS011;10788;47.930;9.766;2022-08-01T06:27:48;0.10;;;0.10;;
21260;SDS011;10788;47.930;9.766;2022-08-01T06:30:14;0.10;;;0.10;;
21260;SDS011;10788;47.930;9.766;2022-08-01T06:32:40;0.10;;;0.10;;
21260;SDS011;10788;47.930;9.766;2022-08-01T06:35:06;0.10;;;0.10;;
21260;SDS011;10788;47.930;9.766;2022-08-01T06:37:32;0.10;;;0.10;;
21260;SDS011;10788;47.930;9.766;2022-08-01T06:40:05;0.10;;;0.10;;
21260;SDS011;10788;47.930;9.766;2022-08-01T06:42:33;0.10;;;0.10;;
21260;SDS011;10788;47.930;9.766;2022-08-01T06:45:03;0.10;;;0.10;;
21260;SDS011;10788;47.930;9.766;2022-08-01T06:47:31;0.10;;;0.10;;
21260;SDS011;10788;47.930;9.766;2022-08-01T06:49:57;0.10;;;0.10;;
21260;SDS011;10788;47.930;9.766;2022-08-01T06:52:23;0.10;;;0.10;;
21260;SDS011;10788;47.930;9.766;2022-08-01T06:54:49;0.10;;;0.10;;
21260;SDS011;10788;47.930;9.766;2022-08-01T06:57:15;0.10;;;0.10;;
21260;SDS011;10788;47.930;9.766;2022-08-01T06:59:40;0.10;;;0.10;;
21260;SDS011;10788;47.930;9.766;2022-08-01T07:02:06;0.10;;;0.10;;
21260;SDS011;10788;47.930;9.766;2022-08-01T07:04:32;0.17;;;0.17;;
21260;SDS011;10788;47.930;9.766;2022-08-01T07:06:59;0.10;;;0.10;;
21260;SDS011;10788;47.930;9.766;2022-08-01T07:09:25;0.10;;;0.10;;
21260;SDS011;10788;47.930;9.766;2022-08-01T07:11:51;0.10;;;0.10;;
21260;SDS011;10788;47.930;9.766;2022-08-01T07:14:18;0.10;;;0.10;;
21260;SDS011;10788;47.930;9.766;2022-08-01T07:16:44;0.10;;;0.10;;
21260;SDS011;10788;47.930;9.766;2022-08-01T07:19:10;0.10;;;0.10;;
21260;SDS011;10788;47.930;9.766;2022-08-01T07:21:36;0.10;;;0.10;;
21260;SDS011;10788;47.930;9.766;2022-08-01T07:24:03;0.10;;;0.10;;
21260;SDS011;10788;47.930;9.766;2022-08-01T07:26:29;0.10;;;0.10;;
21260;SDS011;10788;47.930;9.766;2022-08-01T07:28:55;0.10;;;0.10;;
21260;SDS011;10788;47.930;9.766;2022-08-01T07:31:20;0.10;;;0.10;;
21260;SDS011;10788;47.930;9.766;2022-08-01T07:33:47;0.10;;;0.10;;
21260;SDS011;10788;47.930;9.766;2022-08-01T07:36:13;0.10;;;0.10;;
21260;SDS011;10788;47.930;9.766;2022-08-01T07:38:39;0.10;;;0.10;;
21260;SDS011;10788;47.930;9.766;2022-08-01T07:41:04;0.10;;;0.10;;
21260;SDS011;10788;47.930;9.766;2022-08-01T07:43:30;0.10;;;0.10;;
21260;SDS011;10788;47.930;9.766;2022-08-01T07:45:56;0.10;;;0.10;;
21260;SDS011;10788;47.930;9.766;2022-08-01T07:48:21;0.10;;;0.10;;
21260;SDS011;10788;47.930;9.766;2022-08-01T07:50:49;0.10;;;0.10;;
21260;SDS011;10788;47.930;9.766;2022-08-01T07:53:15;0.10;;;0.10;;
21260;SDS011;10788;47.930;9.766;2022-08-01T07:55:41;0.10;;;0.10;;
21260;SDS011;10788;47.930;9.766;2022-08-01T07:58:07;0.10;;;0.10;;
21260;SDS011;10788;47.930;9.766;2022-08-01T08:00:33;0.20;;;0.20;;
21260;SDS011;10788;47.930;9.766;2022-08-01T08:02:58;0.13;;;0.13;;
21260;SDS011;10788;47.930;9.766;2022-08-01T08:05:27;0.10;;;0.10;;
21260;SDS011;10788;47.930;9.766;2022-08-01T08:07:53;0.10;;;0.10;;
21260;SDS011;10788;47.930;9.766;2022-08-01T08:10:19;0.20;;;0.20;;
21260;SDS011;10788;47.930;9.766;2022-08-01T08:12:44;0.10;;;0.10;;
21260;SDS011;10788;47.930;9.766;2022-08-01T08:15:11;0.10;;;0.10;;
21260;SDS011;10788;47.930;9.766;2022-08-01T08:17:37;0.20;;;0.20;;
21260;SDS011;10788;47.930;9.766;2022-08-01T08:20:07;0.10;;;0.10;;
21260;SDS011;10788;47.930;9.766;2022-08-01T08:22:33;0.20;;;0.20;;
21260;SDS011;10788;47.930;9.766;2022-08-01T08:24:59;0.10;;;0.10;;
21260;SDS011;10788;47.930;9.766;2022-08-01T08:27:25;0.10;;;0.10;;
21260;SDS011;10788;47.930;9.766;2022-08-01T08:29:51;0.10;;;0.10;;
21260;SDS011;10788;47.930;9.766;2022-08-01T08:32:17;0.20;;;0.20;;
21260;SDS011;10788;47.930;9.766;2022-08-01T08:34:43;0.10;;;0.10;;
21260;SDS011;10788;47.930;9.766;2022-08-01T08:37:08;0.20;;;0.20;;
21260;SDS011;10788;47.930;9.766;2022-08-01T08:39:34;0.10;;;0.10;;
21260;SDS011;10788;47.930;9.766;2022-08-01T08:42:00;0.10;;;0.10;;
21260;SDS011;10788;47.930;9.766;2022-08-01T08:44:30;0.10;;;0.10;;
21260;SDS011;10788;47.930;9.766;2022-08-01T08:46:56;0.10;;;0.10;;
21260;SDS011;10788;47.930;9.766;2022-08-01T08:49:26;0.20;;;0.20;;
21260;SDS011;10788;47.930;9.766;2022-08-01T08:51:53;0.20;;;0.20;;
21260;SDS011;10788;47.930;9.766;2022-08-01T08:54:22;0.20;;;0.20;;
21260;SDS011;10788;47.930;9.766;2022-08-01T08:56:50;0.20;;;0.20;;
21260;SDS011;10788;47.930;9.766;2022-08-01T08:59:17;0.20;;;0.20;;
21260;SDS011;10788;47.930;9.766;2022-08-01T09:01:43;0.10;;;0.10;;
21260;SDS011;10788;47.930;9.766;2022-08-01T09:04:10;0.20;;;0.20;;
21260;SDS011;10788;47.930;9.766;2022-08-01T09:06:36;0.20;;;0.20;;
21260;SDS011;10788;47.930;9.766;2022-08-01T09:09:03;0.20;;;0.20;;
21260;SDS011;10788;47.930;9.766;2022-08-01T09:11:29;0.20;;;0.20;;
21260;SDS011;10788;47.930;9.766;2022-08-01T09:16:28;0.17;;;0.17;;
21260;SDS011;10788;47.930;9.766;2022-08-01T09:19:05;0.20;;;0.20;;
21260;SDS011;10788;47.930;9.766;2022-08-01T09:21:32;0.20;;;0.20;;
21260;SDS011;10788;47.930;9.766;2022-08-01T09:23:58;0.20;;;0.20;;
21260;SDS011;10788;47.930;9.766;2022-08-01T09:26:29;0.20;;;0.20;;
21260;SDS011;10788;47.930;9.766;2022-08-01T09:28:56;0.20;;;0.20;;
21260;SDS011;10788;47.930;9.766;2022-08-01T09:31:24;0.20;;;0.20;;
21260;SDS011;10788;47.930;9.766;2022-08-01T09:34:01;0.20;;;0.20;;
21260;SDS011;10788;47.930;9.766;2022-08-01T09:39:32;0.40;;;0.40;;
21260;SDS011;10788;47.930;9.766;2022-08-01T09:42:18;0.30;;;0.30;;
21260;SDS011;10788;47.930;9.766;2022-08-01T09:44:47;0.20;;;0.20;;
21260;SDS011;10788;47.930;9.766;2022-08-01T09:47:14;0.30;;;0.30;;
21260;SDS011;10788;47.930;9.766;2022-08-01T09:49:42;0.30;;;0.30;;
21260;SDS011;10788;47.930;9.766;2022-08-01T09:54:38;0.30;;;0.30;;
21260;SDS011;10788;47.930;9.766;2022-08-01T09:57:08;0.40;;;0.40;;
21260;SDS011;10788;47.930;9.766;2022-08-01T09:59:35;0.30;;;0.30;;
21260;SDS011;10788;47.930;9.766;2022-08-01T10:02:03;0.30;;;0.30;;
21260;SDS011;10788;47.930;9.766;2022-08-01T10:04:28;0.27;;;0.27;;
21260;SDS011;10788;47.930;9.766;2022-08-01T10:07:02;0.40;;;0.40;;
21260;SDS011;10788;47.930;9.766;2022-08-01T10:09:31;0.40;;;0.40;;
21260;SDS011;10788;47.930;9.766;2022-08-01T10:11:59;0.40;;;0.40;;
21260;SDS011;10788;47.930;9.766;2022-08-01T10:14:26;0.40;;;0.40;;
21260;SDS011;10788;47.930;9.766;2022-08-01T10:16:53;0.30;;;0.30;;
21260;SDS011;10788;47.930;9.766;2022-08-01T10:19:23;0.30;;;0.30;;
21260;SDS011;10788;47.930;9.766;2022-08-01T10:21:51;0.30;;;0.30;;
21260;SDS011;10788;47.930;9.766;2022-08-01T10:24:22;0.40;;;0.40;;
21260;SDS011;10788;47.930;9.766;2022-08-01T10:26:50;0.30;;;0.30;;
21260;SDS011;10788;47.930;9.766;2022-08-01T10:29:17;0.50;;;0.50;;
21260;SDS011;10788;47.930;9.766;2022-08-01T10:31:46;0.27;;;0.27;;
21260;SDS011;10788;47.930;9.766;2022-08-01T10:34:12;0.40;;;0.40;;
21260;SDS011;10788;47.930;9.766;2022-08-01T10:36:46;0.40;;;0.40;;
21260;SDS011;10788;47.930;9.766;2022-08-01T10:39:12;0.30;;;0.30;;
21260;SDS011;10788;47.930;9.766;2022-08-01T10:41:39;0.20;;;0.20;;
21260;SDS011;10788;47.930;9.766;2022-08-01T10:44:08;0.30;;;0.30;;
21260;SDS011;10788;47.930;9.766;2022-08-01T10:46:38;0.40;;;0.40;;
21260;SDS011;10788;47.930;9.766;2022-08-01T10:49:07;0.37;;;0.37;;
21260;SDS011;10788;47.930;9.766;2022-08-01T10:51:40;0.50;;;0.50;;
21260;SDS011;10788;47.930;9.766;2022-08-01T10:54:07;0.40;;;0.40;;
21260;SDS011;10788;47.930;9.766;2022-08-01T10:56:50;0.30;;;0.30;;
21260;SDS011;10788;47.930;9.766;2022-08-01T10:59:23;0.30;;;0.30;;
21260;SDS011;10788;47.930;9.766;2022-08-01T11:01:59;0.47;;;0.47;;
21260;SDS011;10788;47.930;9.766;2022-08-01T11:04:54;0.40;;;0.40;;
21260;SDS011;10788;47.930;9.766;2022-08-01T11:07:13;0.30;;;0.30;;
21260;SDS011;10788;47.930;9.766;2022-08-01T11:09:44;0.40;;;0.40;;
21260;SDS011;10788;47.930;9.766;2022-08-01T11:12:16;0.30;;;0.30;;
21260;SDS011;10788;47.930;9.766;2022-08-01T11:22:29;0.30;;;0.30;;
21260;SDS011;10788;47.930;9.766;2022-08-01T11:24:55;0.30;;;0.30;;
21260;SDS011;10788;47.930;9.766;2022-08-01T11:27:28;0.40;;;0.40;;
21260;SDS011;10788;47.930;9.766;2022-08-01T11:32:38;0.43;;;0.43;;
21260;SDS011;10788;47.930;9.766;2022-08-01T11:35:11;0.30;;;0.30;;
21260;SDS011;10788;47.930;9.766;2022-08-01T11:37:37;0.30;;;0.30;;
21260;SDS011;10788;47.930;9.766;2022-08-01T11:40:36;0.40;;;0.40;;
21260;SDS011;10788;47.930;9.766;2022-08-01T11:45:52;0.50;;;0.50;;
21260;SDS011;10788;47.930;9.766;2022-08-01T11:48:22;0.50;;;0.50;;
21260;SDS011;10788;47.930;9.766;2022-08-01T11:50:53;0.43;;;0.43;;
21260;SDS011;10788;47.930;9.766;2022-08-01T11:53:20;0.50;;;0.50;;
21260;SDS011;10788;47.930;9.766;2022-08-01T11:55:47;0.30;;;0.30;;
21260;SDS011;10788;47.930;9.766;2022-08-01T11:58:14;0.30;;;0.30;;
21260;SDS011;10788;47.930;9.766;2022-08-01T12:00:41;0.30;;;0.30;;
21260;SDS011;10788;47.930;9.766;2022-08-01T12:03:14;0.37;;;0.37;;
21260;SDS011;10788;47.930;9.766;2022-08-01T12:05:40;0.30;;;0.30;;
21260;SDS011;10788;47.930;9.766;2022-08-01T12:08:09;0.40;;;0.40;;
21260;SDS011;10788;47.930;9.766;2022-08-01T12:10:34;0.40;;;0.40;;
21260;SDS011;10788;47.930;9.766;2022-08-01T12:13:02;0.33;;;0.33;;
21260;SDS011;10788;47.930;9.766;2022-08-01T12:15:31;0.30;;;0.30;;
21260;SDS011;10788;47.930;9.766;2022-08-01T12:18:02;0.40;;;0.40;;
21260;SDS011;10788;47.930;9.766;2022-08-01T12:20:33;0.40;;;0.40;;
21260;SDS011;10788;47.930;9.766;2022-08-01T12:23:01;0.30;;;0.30;;
21260;SDS011;10788;47.930;9.766;2022-08-01T12:25:32;0.30;;;0.30;;
21260;SDS011;10788;47.930;9.766;2022-08-01T12:28:00;0.40;;;0.40;;
21260;SDS011;10788;47.930;9.766;2022-08-01T12:30:27;0.30;;;0.30;;
21260;SDS011;10788;47.930;9.766;2022-08-01T12:32:55;0.43;;;0.43;;
21260;SDS011;10788;47.930;9.766;2022-08-01T12:35:23;0.40;;;0.40;;
21260;SDS011;10788;47.930;9.766;2022-08-01T12:37:51;0.50;;;0.50;;
21260;SDS011;10788;47.930;9.766;2022-08-01T12:40:21;0.40;;;0.40;;
21260;SDS011;10788;47.930;9.766;2022-08-01T12:42:50;0.43;;;0.43;;
21260;SDS011;10788;47.930;9.766;2022-08-01T12:45:21;0.30;;;0.30;;
21260;SDS011;10788;47.930;9.766;2022-08-01T12:47:52;0.30;;;0.30;;
21260;SDS011;10788;47.930;9.766;2022-08-01T12:50:19;0.40;;;0.40;;
21260;SDS011;10788;47.930;9.766;2022-08-01T12:52:50;0.60;;;0.60;;
21260;SDS011;10788;47.930;9.766;2022-08-01T12:55:17;0.40;;;0.40;;
21260;SDS011;10788;47.930;9.766;2022-08-01T12:57:46;0.50;;;0.50;;
21260;SDS011;10788;47.930;9.766;2022-08-01T13:00:23;0.40;;;0.40;;
21260;SDS011;10788;47.930;9.766;2022-08-01T13:02:51;0.40;;;0.40;;
21260;SDS011;10788;47.930;9.766;2022-08-01T13:05:41;0.50;;;0.50;;
21260;SDS011;10788;47.930;9.766;2022-08-01T13:08:09;0.30;;;0.30;;
21260;SDS011;10788;47.930;9.766;2022-08-01T13:10:39;0.40;;;0.40;;
21260;SDS011;10788;47.930;9.766;2022-08-01T13:13:06;0.40;;;0.40;;
21260;SDS011;10788;47.930;9.766;2022-08-01T13:15:33;0.30;;;0.30;;
21260;SDS011;10788;47.930;9.766;2022-08-01T13:18:21;0.40;;;0.40;;
21260;SDS011;10788;47.930;9.766;2022-08-01T13:20:47;0.30;;;0.30;;
21260;SDS011;10788;47.930;9.766;2022-08-01T13:23:14;0.20;;;0.20;;
21260;SDS011;10788;47.930;9.766;2022-08-01T13:28:16;0.20;;;0.20;;
21260;SDS011;10788;47.930;9.766;2022-08-01T13:33:20;0.40;;;0.40;;
21260;SDS011;10788;47.930;9.766;2022-08-01T13:35:45;0.40;;;0.40;;
21260;SDS011;10788;47.930;9.766;2022-08-01T13:38:12;0.30;;;0.30;;
21260;SDS011;10788;47.930;9.766;2022-08-01T13:40:38;0.30;;;0.30;;
21260;SDS011;10788;47.930;9.766;2022-08-01T13:43:04;0.30;;;0.30;;
21260;SDS011;10788;47.930;9.766;2022-08-01T13:45:29;0.30;;;0.30;;
21260;SDS011;10788;47.930;9.766;2022-08-01T13:47:55;0.30;;;0.30;;
21260;SDS011;10788;47.930;9.766;2022-08-01T13:50:21;0.30;;;0.30;;
21260;SDS011;10788;47.930;9.766;2022-08-01T13:52:46;0.40;;;0.40;;
21260;SDS011;10788;47.930;9.766;2022-08-01T13:55:12;0.33;;;0.33;;
21260;SDS011;10788;47.930;9.766;2022-08-01T13:57:38;0.30;;;0.30;;
21260;SDS011;10788;47.930;9.766;2022-08-01T14:00:07;0.20;;;0.20;;
21260;SDS011;10788;47.930;9.766;2022-08-01T14:02:34;0.30;;;0.30;;
21260;SDS011;10788;47.930;9.766;2022-08-01T14:04:59;0.30;;;0.30;;
21260;SDS011;10788;47.930;9.766;2022-08-01T14:07:26;0.30;;;0.30;;
21260;SDS011;10788;47.930;9.766;2022-08-01T14:09:52;0.30;;;0.30;;
21260;SDS011;10788;47.930;9.766;2022-08-01T14:12:18;0.30;;;0.30;;
21260;SDS011;10788;47.930;9.766;2022-08-01T14:14:43;0.27;;;0.27;;
21260;SDS011;10788;47.930;9.766;2022-08-01T14:17:09;0.30;;;0.30;;
21260;SDS011;10788;47.930;9.766;2022-08-01T14:19:35;0.30;;;0.30;;
21260;SDS011;10788;47.930;9.766;2022-08-01T14:22:00;0.40;;;0.40;;
21260;SDS011;10788;47.930;9.766;2022-08-01T14:24:26;0.30;;;0.30;;
21260;SDS011;10788;47.930;9.766;2022-08-01T14:26:52;0.23;;;0.23;;
21260;SDS011;10788;47.930;9.766;2022-08-01T14:29:18;0.30;;;0.30;;
21260;SDS011;10788;47.930;9.766;2022-08-01T14:31:43;0.30;;;0.30;;
21260;SDS011;10788;47.930;9.766;2022-08-01T14:34:09;0.20;;;0.20;;
21260;SDS011;10788;47.930;9.766;2022-08-01T14:36:35;0.30;;;0.30;;
21260;SDS011;10788;47.930;9.766;2022-08-01T14:39:00;0.20;;;0.20;;
21260;SDS011;10788;47.930;9.766;2022-08-01T14:41:27;0.20;;;0.20;;
21260;SDS011;10788;47.930;9.766;2022-08-01T14:43:53;0.20;;;0.20;;
21260;SDS011;10788;47.930;9.766;2022-08-01T14:46:18;0.20;;;0.20;;
21260;SDS011;10788;47.930;9.766;2022-08-01T14:48:44;0.20;;;0.20;;
21260;SDS011;10788;47.930;9.766;2022-08-01T14:51:09;0.20;;;0.20;;
21260;SDS011;10788;47.930;9.766;2022-08-01T14:53:35;0.30;;;0.30;;
21260;SDS011;10788;47.930;9.766;2022-08-01T14:56:03;0.20;;;0.20;;
21260;SDS011;10788;47.930;9.766;2022-08-01T14:58:29;0.20;;;0.20;;
21260;SDS011;10788;47.930;9.766;2022-08-01T15:00:54;0.20;;;0.20;;
21260;SDS011;10788;47.930;9.766;2022-08-01T15:03:21;0.20;;;0.20;;
21260;SDS011;10788;47.930;9.766;2022-08-01T15:05:47;0.20;;;0.20;;
21260;SDS011;10788;47.930;9.766;2022-08-01T15:08:12;0.13;;;0.13;;
21260;SDS011;10788;47.930;9.766;2022-08-01T15:10:38;0.20;;;0.20;;
21260;SDS011;10788;47.930;9.766;2022-08-01T15:13:04;0.23;;;0.23;;
21260;SDS011;10788;47.930;9.766;2022-08-01T15:15:30;0.20;;;0.20;;
21260;SDS011;10788;47.930;9.766;2022-08-01T15:17:55;0.20;;;0.20;;
21260;SDS011;10788;47.930;9.766;2022-08-01T15:20:21;0.30;;;0.30;;
21260;SDS011;10788;47.930;9.766;2022-08-01T15:22:48;0.10;;;0.10;;
21260;SDS011;10788;47.930;9.766;2022-08-01T15:25:14;0.20;;;0.20;;
21260;SDS011;10788;47.930;9.766;2022-08-01T15:27:39;0.20;;;0.20;;
21260;SDS011;10788;47.930;9.766;2022-08-01T15:30:05;0.20;;;0.20;;